createdAt,value
2022-08-22T00:02:17.064Z,17.7
2022-08-22T00:02:48.504Z,20.3
2022-08-22T00:02:58.171Z,20.9
2022-08-22T00:02:59.340Z,17.9
2022-08-22T00:02:59.906Z,19.2
2022-08-22T00:03:01.581Z,20.5
2022-08-22T00:03:07.177Z,19.6
2022-08-22T00:03:09.594Z,18.1
2022-08-22T00:06:26.213Z,17.7
2022-08-22T00:08:29.238Z,17.6
2022-08-22T00:12:35.277Z,17.8
2022-08-22T00:14:38.318Z,17.8
2022-08-22T00:16:41.330Z,17.6
2022-08-22T00:18:44.370Z,17.6
2022-08-22T00:22:53.580Z,17.5
2022-08-22T00:24:56.592Z,17.6
2022-08-22T00:26:59.633Z,17.7
2022-08-22T00:29:02.647Z,17.7
2022-08-22T00:31:05.668Z,17.7
2022-08-22T00:33:08.725Z,17.6
2022-08-22T00:35:14.890Z,17.7
2022-08-22T00:37:17.910Z,17.7
2022-08-22T00:40:24.009Z,17.6
2022-08-22T00:46:33.082Z,17.6
2022-08-22T00:48:39.241Z,17.6
2022-08-22T00:50:42.268Z,17.6
2022-08-22T00:52:45.311Z,17.7
2022-08-22T00:54:48.341Z,17.7
2022-08-22T01:00:57.470Z,17.6
2022-08-22T01:03:03.573Z,17.6
2022-08-22T01:05:07.612Z,17.5
2022-08-22T01:07:09.628Z,17.5
2022-08-22T01:09:12.660Z,17.6
2022-08-22T01:13:18.718Z,17.6
2022-08-22T01:15:21.750Z,17.6
2022-08-22T01:17:27.896Z,17.7
2022-08-22T01:19:30.945Z,17.7
2022-08-22T01:21:33.951Z,17.6
2022-08-22T01:23:36.966Z,17.6
2022-08-22T01:25:39.991Z,17.7
2022-08-22T01:27:43.028Z,17.7
2022-08-22T01:29:46.046Z,17.6
2022-08-22T01:33:55.232Z,17.4
2022-08-22T01:35:58.267Z,17.7
2022-08-22T01:39:04.366Z,17.7
2022-08-22T01:41:07.387Z,17.6
2022-08-22T01:43:10.403Z,17.8
2022-08-22T01:45:16.582Z,17.8
2022-08-22T01:47:19.584Z,17.6
2022-08-22T01:49:22.626Z,17.8
2022-08-22T01:51:25.649Z,17.6
2022-08-22T01:53:28.693Z,17.6
2022-08-22T01:55:31.696Z,17.6
2022-08-22T01:57:34.718Z,17.5
2022-08-22T02:03:46.936Z,17.4
2022-08-22T02:05:49.955Z,17.4
2022-08-22T02:09:56.023Z,17.4
2022-08-22T02:16:08.196Z,17.4
2022-08-22T02:20:14.223Z,17.3
2022-08-22T02:22:17.274Z,17.3
2022-08-22T02:24:20.290Z,17.3
2022-08-22T02:26:23.310Z,17.3
2022-08-22T02:28:29.456Z,17.4
2022-08-22T02:30:32.485Z,17.2
2022-08-22T02:32:35.531Z,17.3
2022-08-22T02:34:59.627Z,17.3
2022-08-22T02:37:02.666Z,17.1
2022-08-22T02:41:11.842Z,17.1
2022-08-22T02:45:17.903Z,17.2
2022-08-22T02:47:20.924Z,17.1
2022-08-22T02:49:23.959Z,17.1
2022-08-22T02:51:26.995Z,17.2
2022-08-22T02:53:30.072Z,17.1
2022-08-22T02:55:36.189Z,17.1
2022-08-22T02:57:39.711Z,17.1
2022-08-22T02:59:42.229Z,17.1
2022-08-22T03:01:45.284Z,17.1
2022-08-22T03:03:48.308Z,17
2022-08-22T03:05:51.341Z,16.9
2022-08-22T03:07:54.381Z,16.9
2022-08-22T03:10:00.520Z,16.9
2022-08-22T03:12:03.578Z,16.9
2022-08-22T03:14:06.604Z,16.9
2022-08-22T03:16:09.642Z,16.9
2022-08-22T03:22:18.730Z,16.8
2022-08-22T03:24:24.888Z,17
2022-08-22T03:26:27.936Z,16.9
2022-08-22T03:28:30.954Z,16.8
2022-08-22T03:31:37.051Z,16.9
2022-08-22T03:33:40.100Z,17
2022-08-22T03:35:43.126Z,16.9
2022-08-22T03:37:49.269Z,16.9
2022-08-22T03:39:52.443Z,16.9
2022-08-22T03:43:58.357Z,16.9
2022-08-22T03:46:01.997Z,16.9
2022-08-22T03:48:04.451Z,17
2022-08-22T03:50:07.466Z,17
2022-08-22T03:52:13.627Z,17
2022-08-22T03:54:16.643Z,16.9
2022-08-22T03:56:19.688Z,17
2022-08-22T03:58:28.368Z,16.9
2022-08-22T04:06:37.997Z,17
2022-08-22T04:10:44.064Z,16.9
2022-08-22T04:12:47.107Z,16.8
2022-08-22T04:14:50.142Z,16.9
2022-08-22T04:18:56.213Z,16.9
2022-08-22T04:26:12.600Z,16.7
2022-08-22T04:28:14.555Z,16.8
2022-08-22T04:30:17.604Z,16.8
2022-08-22T04:32:20.624Z,17
2022-08-22T04:34:26.770Z,16.9
2022-08-22T04:36:29.787Z,16.9
2022-08-22T04:42:38.886Z,16.8
2022-08-22T04:46:44.959Z,17
2022-08-22T04:59:07.829Z,17.1
2022-08-22T05:01:10.840Z,17.1
2022-08-22T05:03:17.049Z,17
2022-08-22T05:05:20.088Z,17
2022-08-22T05:07:23.102Z,17
2022-08-22T05:09:26.169Z,17
2022-08-22T05:11:29.180Z,17
2022-08-22T05:13:32.197Z,17
2022-08-22T05:15:35.236Z,17.1
2022-08-22T05:17:41.393Z,16.9
2022-08-22T05:19:44.437Z,16.8
2022-08-22T05:21:47.467Z,16.9
2022-08-22T05:22:50.551Z,16.8
2022-08-22T05:24:53.577Z,17
2022-08-22T05:26:56.610Z,17
2022-08-22T05:28:59.639Z,17
2022-08-22T05:31:05.799Z,16.9
2022-08-22T05:33:08.844Z,16.9
2022-08-22T05:35:11.886Z,16.9
2022-08-22T05:37:14.909Z,16.8
2022-08-22T05:39:17.926Z,16.9
2022-08-22T05:41:20.969Z,17
2022-08-22T05:43:24.001Z,16.9
2022-08-22T05:45:30.158Z,16.9
2022-08-22T05:49:36.237Z,17
2022-08-22T05:51:39.243Z,16.9
2022-08-22T05:53:42.296Z,17.1
2022-08-22T05:55:45.313Z,17
2022-08-22T05:57:48.355Z,17.1
2022-08-22T05:59:54.524Z,17.1
2022-08-22T06:01:57.600Z,17
2022-08-22T06:04:00.589Z,17.1
2022-08-22T06:06:03.618Z,17.1
2022-08-22T06:08:06.871Z,17.3
2022-08-22T06:10:09.713Z,17.3
2022-08-22T06:12:18.252Z,17.3
2022-08-22T06:14:18.894Z,17.5
2022-08-22T06:16:21.934Z,17.4
2022-08-22T06:18:24.978Z,17.5
2022-08-22T06:20:54.480Z,17.6
2022-08-22T06:22:57.500Z,17.6
2022-08-22T06:25:00.537Z,17.7
2022-08-22T06:27:06.719Z,17.7
2022-08-22T06:29:09.724Z,17.7
2022-08-22T06:31:12.797Z,17.7
2022-08-22T06:33:15.812Z,17.8
2022-08-22T06:35:18.846Z,18
2022-08-22T06:37:21.875Z,18.1
2022-08-22T06:39:24.892Z,18
2022-08-22T06:41:31.065Z,18.1
2022-08-22T06:45:37.139Z,18.4
2022-08-22T06:47:40.162Z,18.5
2022-08-22T06:49:43.200Z,18.5
2022-08-22T06:51:46.229Z,18.6
2022-08-22T06:53:49.258Z,18.6
2022-08-22T06:55:55.403Z,18.7
2022-08-22T06:57:58.715Z,18.9
2022-08-22T07:00:01.492Z,18.9
2022-08-22T07:02:04.528Z,18.9
2022-08-22T07:04:07.719Z,19.2
2022-08-22T07:06:10.516Z,19.4
2022-08-22T07:08:13.543Z,19.4
2022-08-22T07:10:19.664Z,20.1
2022-08-22T07:12:22.654Z,20.4
2022-08-22T07:14:25.678Z,20.2
2022-08-22T07:15:28.761Z,20.2
2022-08-22T07:17:31.768Z,20.1
2022-08-22T07:19:34.792Z,20.6
2022-08-22T07:21:37.761Z,20.9
2022-08-22T07:23:43.879Z,21.6
2022-08-22T07:25:46.876Z,22
2022-08-22T07:27:49.880Z,21.8
2022-08-22T07:29:52.848Z,21.8
2022-08-22T07:31:55.839Z,21.5
2022-08-22T07:33:58.823Z,21.2
2022-08-22T07:36:01.846Z,20.8
2022-08-22T07:38:07.920Z,21.2
2022-08-22T07:40:10.982Z,21.3
2022-08-22T07:44:16.855Z,21
2022-08-22T07:46:19.837Z,21
2022-08-22T07:52:31.840Z,21.5
2022-08-22T07:56:37.816Z,21.4
2022-08-22T07:58:40.771Z,21.6
2022-08-22T08:00:43.754Z,22
2022-08-22T08:02:46.708Z,23.6
2022-08-22T08:04:49.670Z,25.1
2022-08-22T08:06:55.741Z,26.1
2022-08-22T08:08:58.712Z,27
2022-08-22T08:11:01.651Z,27.1
2022-08-22T08:12:04.684Z,26.1
2022-08-22T08:14:07.637Z,26.1
2022-08-22T08:16:10.577Z,27.3
2022-08-22T08:18:13.496Z,27.8
2022-08-22T08:20:19.571Z,27.7
2022-08-22T08:22:22.478Z,28.4
2022-08-22T08:24:25.377Z,29.5
2022-08-22T08:26:28.299Z,29.6
2022-08-22T08:28:31.197Z,29.9
2022-08-22T08:30:34.109Z,30.8
2022-08-22T08:32:36.965Z,29.3
2022-08-22T08:34:43.016Z,29.3
2022-08-22T08:36:46.090Z,29.4
2022-08-22T08:38:48.734Z,29.6
2022-08-22T08:40:51.610Z,30.4
2022-08-22T08:42:54.469Z,29.9
2022-08-22T08:44:57.300Z,29.1
2022-08-22T08:47:00.155Z,29.4
2022-08-22T08:49:06.406Z,30
2022-08-22T08:51:09.259Z,30.3
2022-08-22T08:53:11.800Z,30.3
2022-08-22T08:55:20.059Z,30.5
2022-08-22T08:57:17.436Z,28.9
2022-08-22T08:59:20.248Z,29.1
2022-08-22T09:01:27.753Z,29.2
2022-08-22T09:03:31.079Z,28.6
2022-08-22T09:05:31.803Z,29.2
2022-08-22T09:08:37.582Z,29.3
2022-08-22T09:10:40.365Z,28.8
2022-08-22T09:12:57.041Z,27.2
2022-08-22T09:16:51.977Z,28.4
2022-08-22T09:18:54.675Z,29.1
2022-08-22T09:29:08.585Z,27.5
2022-08-22T09:31:16.560Z,26.8
2022-08-22T09:33:17.331Z,27
2022-08-22T09:35:20.135Z,27.5
2022-08-22T09:37:22.874Z,26.9
2022-08-22T09:41:28.411Z,25.8
2022-08-22T09:43:33.799Z,25.7
2022-08-22T09:45:37.141Z,25.7
2022-08-22T09:47:39.886Z,25.7
2022-08-22T09:49:42.665Z,25.8
2022-08-22T09:51:45.460Z,26.1
2022-08-22T09:53:48.247Z,26.4
2022-08-22T09:55:51.023Z,26
2022-08-22T09:57:53.809Z,26
2022-08-22T09:59:59.765Z,25.9
2022-08-22T10:02:02.539Z,26.3
2022-08-22T10:04:05.339Z,26.5
2022-08-22T10:08:31.817Z,26.7
2022-08-22T10:10:34.611Z,26.6
2022-08-22T10:14:43.311Z,26.5
2022-08-22T10:16:46.067Z,26.5
2022-08-22T10:18:53.262Z,26.8
2022-08-22T10:20:51.608Z,27.6
2022-08-22T10:22:54.343Z,26.8
2022-08-22T10:24:57.084Z,26.9
2022-08-22T10:27:02.973Z,27.3
2022-08-22T10:29:05.705Z,27.2
2022-08-22T10:31:08.445Z,26.9
2022-08-22T10:35:13.898Z,27.5
2022-08-22T10:41:25.278Z,26.9
2022-08-22T10:45:36.177Z,27.4
2022-08-22T10:47:35.032Z,27.5
2022-08-22T10:49:37.795Z,27.4
2022-08-22T10:51:40.528Z,26.9
2022-08-22T10:53:43.300Z,26.8
2022-08-22T10:55:49.220Z,26.5
2022-08-22T10:57:52.991Z,26.3
2022-08-22T10:59:54.717Z,27
2022-08-22T11:00:57.712Z,27.2
2022-08-22T11:03:00.623Z,27.3
2022-08-22T11:05:03.200Z,27.1
2022-08-22T11:07:05.946Z,27.2
2022-08-22T11:09:11.887Z,27.4
2022-08-22T11:11:14.653Z,27.7
2022-08-22T11:13:17.406Z,27.2
2022-08-22T11:15:24.160Z,27.3
2022-08-22T11:23:34.369Z,26.8
2022-08-22T11:29:43.436Z,27.8
2022-08-22T11:31:47.119Z,28.3
2022-08-22T11:33:48.273Z,28.1
2022-08-22T11:35:50.968Z,28.5
2022-08-22T11:37:56.873Z,29.1
2022-08-22T11:42:02.306Z,28.8
2022-08-22T11:44:04.995Z,28.8
2022-08-22T11:46:07.671Z,28.9
2022-08-22T11:50:13.909Z,28
2022-08-22T11:52:18.831Z,27.6
2022-08-22T11:54:21.509Z,27.2
2022-08-22T11:56:24.181Z,27.4
2022-08-22T12:01:34.183Z,27.2
2022-08-22T12:03:35.484Z,27.7
2022-08-22T12:07:47.401Z,27.4
2022-08-22T12:20:16.753Z,28.1
2022-08-22T12:26:11.232Z,26.8
2022-08-22T12:28:13.920Z,27.4
2022-08-22T12:30:16.503Z,27.7
2022-08-22T12:32:20.618Z,28.1
2022-08-22T12:34:25.026Z,28.4
2022-08-22T12:36:27.693Z,28
2022-08-22T12:42:35.814Z,27.9
2022-08-22T12:44:38.492Z,27.8
2022-08-22T12:48:47.046Z,27.8
2022-08-22T12:50:49.736Z,27.4
2022-08-22T12:53:55.384Z,27.7
2022-08-22T12:55:58.065Z,27.9
2022-08-22T12:58:00.893Z,28
2022-08-22T13:00:03.518Z,28
2022-08-22T13:02:09.374Z,27.5
2022-08-22T13:04:12.103Z,27.5
2022-08-22T13:06:15.170Z,28.3
2022-08-22T13:08:17.793Z,28.6
2022-08-22T13:10:20.242Z,28.9
2022-08-22T13:12:22.930Z,28.7
2022-08-22T13:14:25.698Z,28.9
2022-08-22T13:16:31.619Z,29.5
2022-08-22T13:18:35.803Z,29.2
2022-08-22T13:20:36.910Z,29.3
2022-08-22T13:22:39.597Z,29.5
2022-08-22T13:26:44.955Z,29.5
2022-08-22T13:28:47.621Z,29.4
2022-08-22T13:32:56.138Z,29.4
2022-08-22T13:34:58.773Z,29.4
2022-08-22T13:37:01.449Z,29.2
2022-08-22T13:39:04.112Z,29.7
2022-08-22T13:41:06.785Z,29.2
2022-08-22T13:43:09.398Z,28.9
2022-08-22T13:45:15.223Z,28.6
2022-08-22T13:47:17.851Z,28.4
2022-08-22T13:49:20.517Z,28.5
2022-08-22T13:51:47.381Z,28.4
2022-08-22T13:54:02.080Z,28.5
2022-08-22T13:55:52.687Z,28.4
2022-08-22T13:57:58.535Z,28.2
2022-08-22T14:02:03.898Z,27.9
2022-08-22T14:04:06.528Z,27.8
2022-08-22T14:06:36.813Z,27.9
2022-08-22T14:08:12.917Z,27.9
2022-08-22T14:10:15.238Z,28.2
2022-08-22T14:14:23.155Z,27.6
2022-08-22T14:16:25.980Z,27.4
2022-08-22T14:18:30.438Z,28.1
2022-08-22T14:20:33.613Z,28
2022-08-22T14:22:35.495Z,28.1
2022-08-22T14:24:38.919Z,28.3
2022-08-22T14:28:45.315Z,28.4
2022-08-22T14:32:50.742Z,27.9
2022-08-22T14:38:58.940Z,28.2
2022-08-22T14:41:05.127Z,28.2
2022-08-22T14:43:07.575Z,28.1
2022-08-22T14:45:10.287Z,28.1
2022-08-22T14:48:31.639Z,28.3
2022-08-22T14:50:18.676Z,28.7
2022-08-22T14:54:29.186Z,28.5
2022-08-22T14:56:30.040Z,28.4
2022-08-22T14:58:32.756Z,28.3
2022-08-22T15:00:35.492Z,27.8
2022-08-22T15:02:38.224Z,27.5
2022-08-22T15:04:40.946Z,27.8
2022-08-22T15:06:47.894Z,27.8
2022-08-22T15:08:49.584Z,27.1
2022-08-22T15:10:52.333Z,27
2022-08-22T15:12:55.080Z,27
2022-08-22T15:14:57.813Z,27
2022-08-22T15:17:00.568Z,27.1
2022-08-22T15:19:03.357Z,27.5
2022-08-22T15:21:06.921Z,27.5
2022-08-22T15:23:12.034Z,27.5
2022-08-22T15:25:14.791Z,27.5
2022-08-22T15:29:20.402Z,27.6
2022-08-22T15:31:23.119Z,27.8
2022-08-22T15:33:25.886Z,28.5
2022-08-22T15:35:30.081Z,28.9
2022-08-22T15:37:34.872Z,30.5
2022-08-22T15:41:40.148Z,32.9
2022-08-22T15:42:43.407Z,33.8
2022-08-22T15:44:45.845Z,34.5
2022-08-22T15:46:48.761Z,34.7
2022-08-22T15:48:52.386Z,34.4
2022-08-22T15:50:57.084Z,33.9
2022-08-22T15:53:06.609Z,33.3
2022-08-22T15:55:02.489Z,33
2022-08-22T15:57:05.019Z,33.9
2022-08-22T15:59:07.599Z,33.1
2022-08-22T16:01:18.832Z,32.5
2022-08-22T16:03:12.681Z,33.4
2022-08-22T16:05:18.241Z,33.1
2022-08-22T16:09:23.145Z,33.6
2022-08-22T16:11:28.508Z,33.5
2022-08-22T16:13:28.045Z,33.3
2022-08-22T16:17:32.945Z,32.6
2022-08-22T16:21:40.895Z,31.4
2022-08-22T16:23:43.353Z,29.5
2022-08-22T16:25:45.844Z,28.5
2022-08-22T16:27:48.309Z,28
2022-08-22T16:29:50.881Z,27.8
2022-08-22T16:31:53.473Z,27.5
2022-08-22T16:33:59.278Z,27.5
2022-08-22T16:36:01.867Z,27.5
2022-08-22T16:38:04.516Z,27.4
2022-08-22T16:39:08.971Z,27.4
2022-08-22T16:41:11.600Z,27.4
2022-08-22T16:43:14.265Z,27
2022-08-22T16:45:16.967Z,26.6
2022-08-22T16:47:22.865Z,26.8
2022-08-22T16:49:25.594Z,26.6
2022-08-22T16:51:28.329Z,26.7
2022-08-22T16:53:31.074Z,26.6
2022-08-22T16:55:33.830Z,26.7
2022-08-22T16:57:36.629Z,26.6
2022-08-22T16:59:39.407Z,26.6
2022-08-22T17:01:45.434Z,26.6
2022-08-22T17:03:48.134Z,26.6
2022-08-22T17:05:50.957Z,26.5
2022-08-22T17:07:53.771Z,26.5
2022-08-22T17:09:56.577Z,26.4
2022-08-22T17:11:59.412Z,26.1
2022-08-22T17:14:02.244Z,26.3
2022-08-22T17:16:08.403Z,26.2
2022-08-22T17:18:12.189Z,26.1
2022-08-22T17:20:13.906Z,26.2
2022-08-22T17:24:32.128Z,26.3
2022-08-22T17:30:31.315Z,25.9
2022-08-22T17:32:34.207Z,25.8
2022-08-22T17:34:37.059Z,26
2022-08-22T17:37:00.329Z,25.8
2022-08-22T17:39:03.203Z,25.7
2022-08-22T17:41:06.063Z,25.8
2022-08-22T17:43:12.084Z,25.6
2022-08-22T17:45:14.970Z,25.6
2022-08-22T17:47:18.041Z,25.5
2022-08-22T17:51:27.873Z,25.6
2022-08-22T17:53:26.537Z,25.7
2022-08-22T17:55:29.401Z,25.4
2022-08-22T17:57:35.415Z,25.5
2022-08-22T17:59:38.303Z,25.5
2022-08-22T18:01:41.224Z,25.3
2022-08-22T18:07:49.878Z,25.2
2022-08-22T18:11:58.818Z,25
2022-08-22T18:18:07.532Z,25
2022-08-22T18:20:10.443Z,25
2022-08-22T18:22:13.347Z,24.9
2022-08-22T18:24:16.257Z,24.8
2022-08-22T18:26:24.011Z,24.8
2022-08-22T18:28:25.210Z,24.7
2022-08-22T18:30:28.131Z,24.8
2022-08-22T18:31:34.146Z,24.8
2022-08-22T18:33:34.052Z,24.8
2022-08-22T18:35:37.553Z,24.7
2022-08-22T18:37:39.893Z,24.6
2022-08-22T18:41:48.874Z,24.4
2022-08-22T18:43:51.776Z,24.4
2022-08-22T18:45:54.707Z,24.6
2022-08-22T18:47:57.607Z,24.4
2022-08-22T18:50:00.532Z,24.3
2022-08-22T18:52:03.440Z,24.3
2022-08-22T18:54:09.487Z,24.3
2022-08-22T18:56:12.401Z,24.2
2022-08-22T18:58:15.352Z,24.4
2022-08-22T19:00:18.258Z,24.2
2022-08-22T19:02:21.167Z,24
2022-08-22T19:04:24.097Z,23.9
2022-08-22T19:06:27.025Z,23.8
2022-08-22T19:08:33.097Z,23.7
2022-08-22T19:10:36.026Z,23.7
2022-08-22T19:12:38.940Z,23.5
2022-08-22T19:14:41.861Z,23.5
2022-08-22T19:16:44.803Z,23.5
2022-08-22T19:18:47.719Z,23.3
2022-08-22T19:20:50.652Z,23.4
2022-08-22T19:22:56.731Z,23.2
2022-08-22T19:24:59.615Z,23.1
2022-08-22T19:27:02.528Z,23.1
2022-08-22T19:28:05.583Z,23
2022-08-22T19:30:08.481Z,23.2
2022-08-22T19:32:12.742Z,23.1
2022-08-22T19:34:14.311Z,22.9
2022-08-22T19:36:20.378Z,22.8
2022-08-22T19:38:23.318Z,22.9
2022-08-22T19:42:29.141Z,22.7
2022-08-22T19:44:32.052Z,22.6
2022-08-22T19:46:34.996Z,22.6
2022-08-22T19:48:37.920Z,22.6
2022-08-22T19:50:44.003Z,22.5
2022-08-22T19:52:46.916Z,22.6
2022-08-22T19:54:49.855Z,22.5
2022-08-22T19:56:52.796Z,22.5
2022-08-22T19:58:55.715Z,22.4
2022-08-22T20:00:58.682Z,22.4
2022-08-22T20:03:01.736Z,22.3
2022-08-22T20:05:07.649Z,22.3
2022-08-22T20:07:14.814Z,22.3
2022-08-22T20:09:13.520Z,22.2
2022-08-22T20:11:16.477Z,22.3
2022-08-22T20:13:19.420Z,22.2
2022-08-22T20:15:22.333Z,22.3
2022-08-22T20:19:31.370Z,22.3
2022-08-22T20:24:40.528Z,22.2
2022-08-22T20:27:03.388Z,22.1
2022-08-22T20:28:46.177Z,22.2
2022-08-22T20:30:49.147Z,22.1
2022-08-22T20:32:55.301Z,21.9
2022-08-22T20:34:58.184Z,21.9
2022-08-22T20:39:04.086Z,21.9
2022-08-22T20:41:11.658Z,21.9
2022-08-22T20:43:10.652Z,21.8
2022-08-22T20:45:12.928Z,21.7
2022-08-22T20:47:19.583Z,21.7
2022-08-22T20:49:21.947Z,21.7
2022-08-22T20:51:25.282Z,21.6
2022-08-22T20:53:27.883Z,21.4
2022-08-22T20:55:31.614Z,21.6
2022-08-22T20:59:36.799Z,21.3
2022-08-22T21:01:42.849Z,21.3
2022-08-22T21:03:45.823Z,21.4
2022-08-22T21:05:48.775Z,21.3
2022-08-22T21:07:51.746Z,21.3
2022-08-22T21:09:54.733Z,21.1
2022-08-22T21:11:57.714Z,21.1
2022-08-22T21:14:00.682Z,21.1
2022-08-22T21:18:09.766Z,21.1
2022-08-22T21:20:12.743Z,21
2022-08-22T21:22:34.453Z,20.8
2022-08-22T21:26:40.394Z,20.8
2022-08-22T21:28:46.500Z,20.7
2022-08-22T21:30:49.487Z,20.8
2022-08-22T21:32:55.909Z,20.7
2022-08-22T21:34:55.448Z,20.6
2022-08-22T21:36:58.427Z,20.7
2022-08-22T21:39:01.414Z,20.7
2022-08-22T21:41:04.398Z,20.7
2022-08-22T21:43:10.524Z,20.5
2022-08-22T21:49:19.516Z,20.4
2022-08-22T21:55:28.461Z,20.2
2022-08-22T21:57:34.609Z,20.2
2022-08-22T22:01:42.706Z,20.3
2022-08-22T22:03:43.616Z,20
2022-08-22T22:07:49.613Z,20
2022-08-22T22:09:54.644Z,19.9
2022-08-22T22:11:58.747Z,19.8
2022-08-22T22:14:01.766Z,19.9
2022-08-22T22:16:04.747Z,19.8
2022-08-22T22:17:07.813Z,19.8
2022-08-22T22:19:10.829Z,19.8
2022-08-22T22:21:13.856Z,19.7
2022-08-22T22:23:16.859Z,19.6
2022-08-22T22:25:39.709Z,19.7
2022-08-22T22:27:25.992Z,19.6
2022-08-22T22:29:28.992Z,19.9
2022-08-22T22:31:32.025Z,19.8
2022-08-22T22:33:36.606Z,19.8
2022-08-22T22:35:39.603Z,19.8
2022-08-22T22:37:42.561Z,19.8
2022-08-22T22:39:48.795Z,19.6
2022-08-22T22:41:51.708Z,19.5
2022-08-22T22:43:54.727Z,19.6
2022-08-22T22:45:57.748Z,19.6
2022-08-22T22:48:00.935Z,19.5
2022-08-22T22:50:03.782Z,19.5
2022-08-22T22:52:06.794Z,19.4
2022-08-22T22:54:12.898Z,19.4
2022-08-22T22:56:16.025Z,19.4
2022-08-22T22:58:18.992Z,19.4
2022-08-22T23:00:21.995Z,19.4
2022-08-22T23:02:25.007Z,19.4
2022-08-22T23:04:28.027Z,19.3
2022-08-22T23:06:31.036Z,19.2
2022-08-22T23:10:40.191Z,19.1
2022-08-22T23:12:43.200Z,19.2
2022-08-22T23:15:49.288Z,19.1
2022-08-22T23:22:01.439Z,19.1
2022-08-22T23:24:04.443Z,19.1
2022-08-22T23:26:07.439Z,18.9
2022-08-22T23:28:10.443Z,18.9
2022-08-22T23:34:19.515Z,19
2022-08-22T23:38:28.698Z,18.9
2022-08-22T23:40:31.735Z,18.9
2022-08-22T23:44:37.793Z,18.9
2022-08-22T23:52:52.994Z,18.6
2022-08-22T23:54:56.022Z,18.7
